createdAt,value
2023-02-21T00:00:52.178Z,96952.38
2023-02-21T00:03:20.052Z,96937.63
2023-02-21T00:05:49.242Z,96939.03
2023-02-21T00:08:16.881Z,96935.72
2023-02-21T00:10:44.462Z,96937.38
2023-02-21T00:13:12.512Z,96915.63
2023-02-21T00:15:40.157Z,96928.34
2023-02-21T00:18:07.733Z,96924.69
2023-02-21T00:20:35.222Z,96927.72
2023-02-21T00:23:04.275Z,96933.06
2023-02-21T00:25:31.758Z,96926.69
2023-02-21T00:28:01.225Z,96934.50
2023-02-21T00:30:28.791Z,96936.16
2023-02-21T00:32:58.773Z,96915.38
2023-02-21T00:35:26.901Z,96909.47
2023-02-21T00:37:54.495Z,96908.81
2023-02-21T00:40:23.621Z,96917.25
2023-02-21T00:42:51.870Z,96916.41
2023-02-21T00:45:19.413Z,96920.97
2023-02-21T00:47:47.082Z,96916.66
2023-02-21T00:50:14.680Z,96924.69
2023-02-21T00:52:42.245Z,96925.91
2023-02-21T00:55:10.775Z,96919.75
2023-02-21T00:57:39.815Z,96927.53
2023-02-21T01:00:09.561Z,96939.03
2023-02-21T01:02:36.767Z,96948.91
2023-02-21T01:05:05.278Z,96926.16
2023-02-21T01:07:33.004Z,96922.22
2023-02-21T01:10:00.751Z,96927.56
2023-02-21T01:12:28.364Z,96926.06
2023-02-21T01:14:58.433Z,96928.75
2023-02-21T01:17:26.807Z,96933.47
2023-02-21T01:19:54.414Z,96926.03
2023-02-21T01:22:22.463Z,96931.81
2023-02-21T01:24:50.110Z,96927.94
2023-02-21T01:27:17.861Z,96926.91
2023-02-21T01:29:45.698Z,96920.56
2023-02-21T01:32:14.748Z,96917.25
2023-02-21T01:34:42.278Z,96913.56
2023-02-21T01:37:09.814Z,96926.22
2023-02-21T01:39:37.995Z,96936.53
2023-02-21T01:42:05.666Z,96940.19
2023-02-21T01:44:37.148Z,96936.94
2023-02-21T01:47:04.802Z,96944.56
2023-02-21T01:49:36.654Z,96935.50
2023-02-21T01:52:05.898Z,96931.78
2023-02-21T01:54:38.361Z,96934.84
2023-02-21T01:57:07.735Z,96927.84
2023-02-21T01:59:35.431Z,96905.69
2023-02-21T02:02:11.708Z,96918.38
2023-02-21T02:04:42.516Z,96916.94
2023-02-21T02:07:11.146Z,96928.47
2023-02-21T02:09:38.684Z,96928.81
2023-02-21T02:12:19.274Z,96910.16
2023-02-21T02:15:03.965Z,96923.09
2023-02-21T02:17:41.430Z,96923.09
2023-02-21T02:20:52.316Z,96916.09
2023-02-21T02:23:55.345Z,96912.81
2023-02-21T02:26:51.161Z,96908.72
2023-02-21T02:29:43.422Z,96905.66
2023-02-21T02:32:33.485Z,96904.44
2023-02-21T02:35:09.529Z,96908.53
2023-02-21T02:37:50.151Z,96892.91
2023-02-21T02:40:27.548Z,96886.53
2023-02-21T02:43:07.687Z,96882.44
2023-02-21T02:45:40.162Z,96879.34
2023-02-21T02:48:14.845Z,96880.34
2023-02-21T02:50:47.627Z,96890.41
2023-02-21T02:53:19.737Z,96889.25
2023-02-21T02:55:53.065Z,96881.38
2023-02-21T02:58:22.441Z,96879.00
2023-02-21T03:01:06.822Z,96876.06
2023-02-21T03:03:55.916Z,96871.31
2023-02-21T03:06:35.177Z,96872.38
2023-02-21T03:09:07.105Z,96873.63
2023-02-21T03:11:37.807Z,96866.84
2023-02-21T03:14:09.997Z,96872.94
2023-02-21T03:16:44.197Z,96875.69
2023-02-21T03:19:14.592Z,96875.03
2023-02-21T03:21:48.041Z,96878.16
2023-02-21T03:24:18.206Z,96879.81
2023-02-21T03:26:49.522Z,96879.94
2023-02-21T03:29:45.185Z,96885.94
2023-02-21T03:32:17.574Z,96878.56
2023-02-21T03:34:48.134Z,96886.31
2023-02-21T03:37:29.910Z,96892.50
2023-02-21T03:39:58.212Z,96884.91
2023-02-21T03:42:25.927Z,96876.94
2023-02-21T03:44:53.775Z,96881.03
2023-02-21T03:47:22.163Z,96879.81
2023-02-21T03:49:50.236Z,96875.72
2023-02-21T03:52:18.254Z,96884.34
2023-02-21T03:54:47.390Z,96885.13
2023-02-21T03:57:18.487Z,96878.16
2023-02-21T03:59:47.944Z,96881.50
2023-02-21T04:02:16.121Z,96870.13
2023-02-21T04:04:44.286Z,96871.59
2023-02-21T04:07:15.821Z,96870.81
2023-02-21T04:09:43.533Z,96864.22
2023-02-21T04:12:16.849Z,96857.66
2023-02-21T04:14:44.642Z,96848.09
2023-02-21T04:17:12.599Z,96850.25
2023-02-21T04:19:40.882Z,96854.84
2023-02-21T04:22:08.569Z,96854.06
2023-02-21T04:24:36.181Z,96847.88
2023-02-21T04:27:04.293Z,96847.25
2023-02-21T04:29:36.493Z,96838.38
2023-02-21T04:32:04.844Z,96845.97
2023-02-21T04:34:34.042Z,96847.41
2023-02-21T04:37:01.950Z,96846.97
2023-02-21T04:39:29.923Z,96847.81
2023-02-21T04:41:57.520Z,96842.69
2023-02-21T04:44:25.096Z,96837.75
2023-02-21T04:46:54.093Z,96832.78
2023-02-21T04:49:21.926Z,96838.38
2023-02-21T04:51:49.547Z,96838.56
2023-02-21T04:54:17.120Z,96830.78
2023-02-21T04:56:44.660Z,96833.88
2023-02-21T04:59:12.287Z,96834.97
2023-02-21T05:01:39.857Z,96837.00
2023-02-21T05:04:09.759Z,96850.63
2023-02-21T05:06:37.800Z,96847.09
2023-02-21T05:09:05.363Z,96842.63
2023-02-21T05:11:34.675Z,96838.03
2023-02-21T05:14:02.488Z,96835.25
2023-02-21T05:16:30.333Z,96849.31
2023-02-21T05:18:57.876Z,96846.81
2023-02-21T05:21:26.963Z,96852.63
2023-02-21T05:23:54.474Z,96838.03
2023-02-21T05:26:24.082Z,96856.94
2023-02-21T05:28:52.361Z,96846.06
2023-02-21T05:31:20.101Z,96844.81
2023-02-21T05:33:47.804Z,96832.28
2023-02-21T05:36:15.377Z,96835.81
2023-02-21T05:38:48.625Z,96840.53
2023-02-21T05:41:16.928Z,96853.47
2023-02-21T05:43:45.374Z,96854.50
2023-02-21T05:46:25.078Z,96849.63
2023-02-21T05:48:52.576Z,96857.16
2023-02-21T05:51:20.699Z,96850.94
2023-02-21T05:53:50.360Z,96848.50
2023-02-21T05:56:17.616Z,96837.59
2023-02-21T05:58:45.516Z,96848.13
2023-02-21T06:01:13.520Z,96841.94
2023-02-21T06:03:41.464Z,96830.22
2023-02-21T06:06:09.077Z,96827.19
2023-02-21T06:08:43.367Z,96822.88
2023-02-21T06:11:13.303Z,96819.94
2023-02-21T06:13:41.742Z,96814.19
2023-02-21T06:16:09.390Z,96814.00
2023-02-21T06:18:36.992Z,96821.59
2023-02-21T06:21:04.725Z,96823.66
2023-02-21T06:23:32.408Z,96818.38
2023-02-21T06:26:00.417Z,96828.41
2023-02-21T06:28:30.574Z,96833.56
2023-02-21T06:30:58.403Z,96836.44
2023-02-21T06:33:26.040Z,96833.41
2023-02-21T06:35:54.199Z,96828.66
2023-02-21T06:38:21.811Z,96824.75
2023-02-21T06:40:49.366Z,96825.75
2023-02-21T06:43:17.442Z,96822.28
2023-02-21T06:45:46.510Z,96835.75
2023-02-21T06:48:18.520Z,96830.41
2023-02-21T06:50:46.255Z,96827.94
2023-02-21T06:53:13.841Z,96842.28
2023-02-21T06:55:41.440Z,96824.97
2023-02-21T06:58:09.409Z,96843.47
2023-02-21T07:00:37.143Z,96824.56
2023-02-21T07:03:06.742Z,96825.59
2023-02-21T07:05:34.358Z,96814.53
2023-02-21T07:08:02.373Z,96808.97
2023-02-21T07:10:30.913Z,96793.97
2023-02-21T07:12:58.477Z,96783.47
2023-02-21T07:15:26.121Z,96781.00
2023-02-21T07:17:53.708Z,96776.63
2023-02-21T07:20:22.754Z,96765.88
2023-02-21T07:22:50.351Z,96756.06
2023-02-21T07:25:19.605Z,96756.25
2023-02-21T07:27:47.873Z,96753.38
2023-02-21T07:30:16.299Z,96755.22
2023-02-21T07:35:11.768Z,96748.66
2023-02-21T07:37:40.807Z,96751.53
2023-02-21T07:40:09.529Z,96747.84
2023-02-21T07:42:37.077Z,96760.97
2023-02-21T07:45:05.007Z,96755.03
2023-02-21T07:47:32.654Z,96747.84
2023-02-21T07:50:00.324Z,96743.53
2023-02-21T07:52:27.963Z,96744.38
2023-02-21T07:54:57.131Z,96754.47
2023-02-21T07:57:24.750Z,96755.50
2023-02-21T07:59:52.328Z,96752.00
2023-02-21T08:02:20.508Z,96753.03
2023-02-21T08:04:51.110Z,96748.47
2023-02-21T08:07:19.746Z,96748.44
2023-02-21T08:09:48.354Z,96738.78
2023-02-21T08:12:17.521Z,96752.56
2023-02-21T08:14:45.102Z,96752.59
2023-02-21T08:17:12.711Z,96763.94
2023-02-21T08:19:40.191Z,96759.38
2023-02-21T08:22:07.718Z,96754.25
2023-02-21T08:24:35.288Z,96742.53
2023-02-21T08:27:02.806Z,96737.16
2023-02-21T08:29:31.967Z,96722.16
2023-02-21T08:31:59.720Z,96732.88
2023-02-21T08:34:28.310Z,96720.53
2023-02-21T08:36:56.429Z,96711.28
2023-02-21T08:39:24.132Z,96708.19
2023-02-21T08:41:51.715Z,96705.28
2023-02-21T08:44:19.386Z,96702.22
2023-02-21T08:46:49.852Z,96699.56
2023-02-21T08:49:18.760Z,96693.78
2023-02-21T08:51:46.392Z,96695.63
2023-02-21T08:54:13.982Z,96696.25
2023-02-21T08:56:41.590Z,96691.09
2023-02-21T08:59:09.225Z,96687.81
2023-02-21T09:01:37.356Z,96683.06
2023-02-21T09:04:06.757Z,96678.53
2023-02-21T09:06:34.417Z,96677.28
2023-02-21T09:09:01.993Z,96670.28
2023-02-21T09:11:30.129Z,96673.47
2023-02-21T09:13:57.694Z,96659.84
2023-02-21T09:16:25.680Z,96657.31
2023-02-21T09:18:57.092Z,96665.53
2023-02-21T09:21:26.484Z,96665.50
2023-02-21T09:23:55.891Z,96663.38
2023-02-21T09:26:24.316Z,96664.53
2023-02-21T09:28:52.772Z,96653.63
2023-02-21T09:31:20.913Z,96638.59
2023-02-21T09:33:48.584Z,96636.75
2023-02-21T09:36:16.673Z,96636.91
2023-02-21T09:38:48.552Z,96632.13
2023-02-21T09:41:16.290Z,96641.16
2023-02-21T09:43:47.772Z,96640.56
2023-02-21T09:46:19.488Z,96637.97
2023-02-21T09:48:49.015Z,96623.81
2023-02-21T09:51:18.388Z,96625.22
2023-02-21T09:53:49.556Z,96617.31
2023-02-21T09:56:25.510Z,96619.31
2023-02-21T09:58:53.137Z,96612.72
2023-02-21T10:01:28.241Z,96603.06
2023-02-21T10:04:05.679Z,96601.31
2023-02-21T10:06:42.314Z,96595.97
2023-02-21T10:09:21.548Z,96593.47
2023-02-21T10:11:59.446Z,96584.19
2023-02-21T10:14:36.581Z,96576.34
2023-02-21T10:17:12.505Z,96579.41
2023-02-21T10:19:44.161Z,96564.06
2023-02-21T10:22:18.688Z,96563.78
2023-02-21T10:24:48.742Z,96571.66
2023-02-21T10:27:20.115Z,96568.84
2023-02-21T10:29:51.710Z,96557.66
2023-02-21T10:32:19.527Z,96556.31
2023-02-21T10:34:49.231Z,96557.72
2023-02-21T10:37:30.032Z,96542.53
2023-02-21T10:40:02.790Z,96544.91
2023-02-21T10:42:35.682Z,96537.69
2023-02-21T10:45:04.887Z,96535.56
2023-02-21T10:47:45.592Z,96532.28
2023-02-21T10:50:13.711Z,96529.88
2023-02-21T10:52:48.732Z,96525.84
2023-02-21T10:55:32.302Z,96523.47
2023-02-21T10:58:08.579Z,96506.78
2023-02-21T11:00:38.919Z,96510.69
2023-02-21T11:03:13.059Z,96508.66
2023-02-21T11:05:41.056Z,96511.50
2023-02-21T11:08:09.914Z,96516.25
2023-02-21T11:10:41.866Z,96511.41
2023-02-21T11:13:16.009Z,96502.28
2023-02-21T11:15:44.402Z,96495.97
2023-02-21T11:18:18.994Z,96501.38
2023-02-21T11:20:46.976Z,96489.31
2023-02-21T11:23:35.599Z,96485.13
2023-02-21T11:26:10.591Z,96475.47
2023-02-21T11:28:40.398Z,96473.72
2023-02-21T11:31:15.753Z,96474.88
2023-02-21T11:33:52.565Z,96483.53
2023-02-21T11:36:21.179Z,96474.53
2023-02-21T11:39:02.036Z,96461.25
2023-02-21T11:41:37.185Z,96465.66
2023-02-21T11:44:24.950Z,96463.16
2023-02-21T11:46:58.509Z,96462.38
2023-02-21T11:49:43.143Z,96448.16
2023-02-21T11:52:14.659Z,96451.22
2023-02-21T11:54:43.906Z,96449.28
2023-02-21T11:57:20.774Z,96449.66
2023-02-21T11:59:55.822Z,96445.00
2023-02-21T12:02:52.821Z,96448.38
2023-02-21T12:05:33.195Z,96444.88
2023-02-21T12:08:20.822Z,96432.03
2023-02-21T12:10:57.007Z,96419.56
2023-02-21T12:13:36.354Z,96422.47
2023-02-21T12:16:12.330Z,96426.53
2023-02-21T12:18:56.204Z,96418.13
2023-02-21T12:21:47.137Z,96418.72
2023-02-21T12:24:29.073Z,96410.91
2023-02-21T12:27:02.310Z,96404.84
2023-02-21T12:29:47.056Z,96402.16
2023-02-21T12:32:36.064Z,96395.38
2023-02-21T12:35:37.341Z,96389.84
2023-02-21T12:38:10.554Z,96387.97
2023-02-21T12:40:45.422Z,96386.59
2023-02-21T12:43:39.261Z,96380.06
2023-02-21T12:46:14.869Z,96376.31
2023-02-21T12:48:48.177Z,96365.47
2023-02-21T12:51:20.793Z,96360.66
2023-02-21T12:53:53.142Z,96361.38
2023-02-21T12:56:25.060Z,96349.84
2023-02-21T12:58:56.985Z,96342.56
2023-02-21T13:01:31.837Z,96345.59
2023-02-21T13:04:09.821Z,96335.09
2023-02-21T13:06:42.749Z,96332.63
2023-02-21T13:09:21.167Z,96332.16
2023-02-21T13:11:59.613Z,96320.16
2023-02-21T13:14:36.371Z,96314.78
2023-02-21T13:17:05.700Z,96314.16
2023-02-21T13:19:42.465Z,96307.16
2023-02-21T13:22:23.030Z,96300.66
2023-02-21T13:25:21.369Z,96285.38
2023-02-21T13:28:07.273Z,96287.00
2023-02-21T13:30:41.196Z,96277.75
2023-02-21T13:33:25.362Z,96274.06
2023-02-21T13:35:53.483Z,96261.69
2023-02-21T13:38:21.641Z,96256.22
2023-02-21T13:40:53.272Z,96262.81
2023-02-21T13:43:25.133Z,96252.84
2023-02-21T13:45:53.052Z,96236.19
2023-02-21T13:48:27.982Z,96237.94
2023-02-21T13:50:57.255Z,96232.59
2023-02-21T13:53:26.959Z,96228.38
2023-02-21T13:56:24.273Z,96221.75
2023-02-21T13:58:51.856Z,96221.75
2023-02-21T14:01:47.628Z,96216.66
2023-02-21T14:05:00.803Z,96211.34
2023-02-21T14:07:49.005Z,96208.38
2023-02-21T14:10:32.533Z,96203.59
2023-02-21T14:13:04.394Z,96197.53
2023-02-21T14:15:43.881Z,96190.00
2023-02-21T14:18:16.051Z,96173.63
2023-02-21T14:20:45.927Z,96187.63
2023-02-21T14:23:17.305Z,96193.00
2023-02-21T14:25:58.424Z,96190.19
2023-02-21T14:29:00.431Z,96194.41
2023-02-21T14:31:53.000Z,96176.03
2023-02-21T14:34:35.518Z,96178.50
2023-02-21T14:37:12.172Z,96172.31
2023-02-21T14:39:44.201Z,96170.25
2023-02-21T14:42:39.552Z,96157.59
2023-02-21T14:45:36.733Z,96154.88
2023-02-21T14:48:26.110Z,96147.53
2023-02-21T14:51:25.148Z,96134.50
2023-02-21T14:54:42.981Z,96130.28
2023-02-21T14:57:50.617Z,96130.31
2023-02-21T15:00:23.202Z,96117.75
2023-02-21T15:02:55.313Z,96114.63
2023-02-21T15:05:28.013Z,96112.72
2023-02-21T15:08:06.169Z,96105.84
2023-02-21T15:10:40.765Z,96111.22
2023-02-21T15:13:23.737Z,96104.72
2023-02-21T15:15:57.974Z,96093.97
2023-02-21T15:18:28.022Z,96096.66
2023-02-21T15:21:07.965Z,96095.19
2023-02-21T15:23:36.080Z,96084.13
2023-02-21T15:26:18.661Z,96072.53
2023-02-21T15:28:47.777Z,96073.47
2023-02-21T15:31:16.744Z,96070.69
2023-02-21T15:33:44.771Z,96057.00
2023-02-21T15:36:18.622Z,96058.63
2023-02-21T15:38:50.181Z,96052.91
2023-02-21T15:41:28.218Z,96039.19
2023-02-21T15:44:01.232Z,96020.50
2023-02-21T15:46:33.184Z,96017.66
2023-02-21T15:49:03.760Z,96020.03
2023-02-21T15:51:32.653Z,96026.13
2023-02-21T15:54:21.936Z,96015.53
2023-02-21T15:57:01.243Z,96004.84
2023-02-21T15:59:31.327Z,96007.88
2023-02-21T16:02:14.579Z,95993.38
2023-02-21T16:04:43.826Z,95995.09
2023-02-21T16:07:21.540Z,95988.56
2023-02-21T16:09:51.220Z,95998.75
2023-02-21T16:12:27.018Z,96000.63
2023-02-21T16:15:00.210Z,95984.06
2023-02-21T16:17:32.424Z,95977.59
2023-02-21T16:20:02.965Z,95976.16
2023-02-21T16:22:43.089Z,95974.09
2023-02-21T16:25:23.821Z,95967.41
2023-02-21T16:27:52.969Z,95960.22
2023-02-21T16:30:25.349Z,95950.31
2023-02-21T16:32:54.934Z,95948.94
2023-02-21T16:35:25.292Z,95945.59
2023-02-21T16:37:55.242Z,95953.91
2023-02-21T16:40:25.831Z,95943.53
2023-02-21T16:42:55.199Z,95946.84
2023-02-21T16:45:24.697Z,95943.09
2023-02-21T16:47:57.545Z,95945.31
2023-02-21T16:50:29.155Z,95936.00
2023-02-21T16:52:57.221Z,95938.22
2023-02-21T16:55:25.337Z,95938.13
2023-02-21T16:57:55.333Z,95935.81
2023-02-21T17:00:25.274Z,95934.34
2023-02-21T17:02:53.644Z,95929.63
2023-02-21T17:05:22.115Z,95929.22
2023-02-21T17:07:51.162Z,95933.47
2023-02-21T17:10:20.003Z,95934.13
2023-02-21T17:12:47.614Z,95931.34
2023-02-21T17:15:15.380Z,95932.88
2023-02-21T17:17:52.703Z,95929.69
2023-02-21T17:20:22.607Z,95927.59
2023-02-21T17:22:50.485Z,95928.66
2023-02-21T17:25:19.414Z,95924.50
2023-02-21T17:27:47.221Z,95932.59
2023-02-21T17:30:16.175Z,95927.69
2023-02-21T17:32:45.826Z,95926.94
2023-02-21T17:35:13.458Z,95922.25
2023-02-21T17:37:41.567Z,95917.63
2023-02-21T17:40:10.557Z,95917.88
2023-02-21T17:42:39.402Z,95918.09
2023-02-21T17:45:08.389Z,95923.81
2023-02-21T17:50:05.639Z,95918.38
2023-02-21T17:52:33.653Z,95913.72
2023-02-21T17:55:01.665Z,95918.75
2023-02-21T17:57:29.476Z,95922.19
2023-02-21T17:59:57.357Z,95923.59
2023-02-21T18:02:24.970Z,95919.72
2023-02-21T18:04:52.665Z,95907.78
2023-02-21T18:07:21.764Z,95904.41
2023-02-21T18:09:49.494Z,95912.09
2023-02-21T18:12:17.149Z,95906.16
2023-02-21T18:14:45.248Z,95905.06
2023-02-21T18:17:13.323Z,95895.34
2023-02-21T18:22:08.254Z,95896.22
2023-02-21T18:24:37.370Z,95888.75
2023-02-21T18:27:05.055Z,95876.44
2023-02-21T18:29:32.635Z,95871.75
2023-02-21T18:32:00.341Z,95875.25
2023-02-21T18:34:27.885Z,95873.09
2023-02-21T18:36:56.373Z,95873.63
2023-02-21T18:39:24.680Z,95874.75
2023-02-21T18:41:53.649Z,95882.06
2023-02-21T18:44:21.218Z,95883.19
2023-02-21T18:46:52.757Z,95878.81
2023-02-21T18:49:21.117Z,95881.94
2023-02-21T18:51:49.205Z,95889.34
2023-02-21T18:54:17.373Z,95886.06
2023-02-21T18:56:49.007Z,95896.69
2023-02-21T18:59:18.809Z,95893.13
2023-02-21T19:01:48.332Z,95881.56
2023-02-21T19:04:15.917Z,95892.50
2023-02-21T19:06:43.679Z,95897.34
2023-02-21T19:09:11.943Z,95902.78
2023-02-21T19:11:39.742Z,95899.50
2023-02-21T19:14:07.259Z,95906.38
2023-02-21T19:16:36.367Z,95915.91
2023-02-21T19:19:04.610Z,95910.41
2023-02-21T19:21:32.681Z,95907.72
2023-02-21T19:24:00.381Z,95899.59
2023-02-21T19:26:29.067Z,95905.78
2023-02-21T19:28:56.638Z,95910.91
2023-02-21T19:31:24.482Z,95904.56
2023-02-21T19:33:53.930Z,95900.75
2023-02-21T19:36:22.075Z,95894.63
2023-02-21T19:38:49.672Z,95888.59
2023-02-21T19:41:17.679Z,95886.69
2023-02-21T19:43:45.350Z,95893.19
2023-02-21T19:46:20.768Z,95887.09
2023-02-21T19:48:48.689Z,95883.13
2023-02-21T19:51:20.852Z,95881.94
2023-02-21T19:53:48.717Z,95888.09
2023-02-21T19:56:16.249Z,95883.53
2023-02-21T19:58:45.203Z,95886.56
2023-02-21T20:01:13.278Z,95891.16
2023-02-21T20:03:41.015Z,95895.41
2023-02-21T20:06:08.668Z,95903.09
2023-02-21T20:08:37.727Z,95900.41
2023-02-21T20:11:05.492Z,95897.09
2023-02-21T20:13:32.959Z,95887.84
2023-02-21T20:16:00.592Z,95886.75
2023-02-21T20:18:28.181Z,95883.53
2023-02-21T20:20:55.716Z,95889.25
2023-02-21T20:23:23.252Z,95887.66
2023-02-21T20:25:52.314Z,95891.16
2023-02-21T20:28:19.939Z,95894.63
2023-02-21T20:30:47.618Z,95889.53
2023-02-21T20:33:15.228Z,95893.53
2023-02-21T20:35:42.821Z,95899.78
2023-02-21T20:38:10.497Z,95900.50
2023-02-21T20:40:38.103Z,95898.16
2023-02-21T20:43:07.058Z,95900.31
2023-02-21T20:45:34.603Z,95893.03
2023-02-21T20:48:02.091Z,95888.25
2023-02-21T20:50:29.674Z,95897.34
2023-02-21T20:52:57.240Z,95902.78
2023-02-21T20:55:24.784Z,95912.28
2023-02-21T20:57:52.345Z,95909.00
2023-02-21T21:00:21.580Z,95909.59
2023-02-21T21:02:49.762Z,95907.41
2023-02-21T21:05:17.549Z,95909.03
2023-02-21T21:07:45.769Z,95913.63
2023-02-21T21:10:15.496Z,95910.66
2023-02-21T21:12:43.241Z,95904.25
2023-02-21T21:15:10.876Z,95910.66
2023-02-21T21:17:39.868Z,95914.94
2023-02-21T21:20:09.097Z,95921.09
2023-02-21T21:22:36.729Z,95930.47
2023-02-21T21:25:04.565Z,95938.03
2023-02-21T21:27:32.461Z,95933.81
2023-02-21T21:30:00.167Z,95940.94
2023-02-21T21:32:28.366Z,95938.72
2023-02-21T21:34:58.294Z,95944.53
2023-02-21T21:37:27.760Z,95944.84
2023-02-21T21:39:56.320Z,95950.28
2023-02-21T21:42:26.139Z,95960.94
2023-02-21T21:44:55.767Z,95956.97
2023-02-21T21:47:24.214Z,95961.16
2023-02-21T21:49:51.807Z,95965.13
2023-02-21T21:52:22.127Z,95967.25
2023-02-21T21:54:50.030Z,95987.41
2023-02-21T21:57:18.774Z,95988.25
2023-02-21T21:59:49.802Z,95981.19
2023-02-21T22:02:17.698Z,95985.47
2023-02-21T22:04:45.796Z,95983.03
2023-02-21T22:07:13.925Z,95981.28
2023-02-21T22:09:42.908Z,95989.97
2023-02-21T22:12:19.177Z,95987.72
2023-02-21T22:14:46.710Z,95984.03
2023-02-21T22:17:14.207Z,95980.44
2023-02-21T22:19:41.866Z,95975.81
2023-02-21T22:22:09.446Z,95968.25
2023-02-21T22:24:39.805Z,95969.97
2023-02-21T22:27:08.848Z,95983.50
2023-02-21T22:29:36.465Z,95988.91
2023-02-21T22:32:04.196Z,95992.66
2023-02-21T22:34:31.752Z,95996.81
2023-02-21T22:36:59.441Z,96006.06
2023-02-21T22:39:27.470Z,96002.69
2023-02-21T22:41:55.024Z,95999.75
2023-02-21T22:44:24.511Z,96006.72
2023-02-21T22:46:53.352Z,95999.34
2023-02-21T22:49:20.919Z,96006.78
2023-02-21T22:51:48.515Z,96007.44
2023-02-21T22:54:16.247Z,96006.88
2023-02-21T22:56:44.121Z,96015.41
2023-02-21T22:59:11.677Z,96006.72
2023-02-21T23:01:40.614Z,96011.25
2023-02-21T23:04:08.152Z,96007.81
2023-02-21T23:06:35.803Z,96008.88
2023-02-21T23:09:04.114Z,96013.91
2023-02-21T23:11:31.695Z,96015.75
2023-02-21T23:13:59.242Z,96030.28
2023-02-21T23:16:26.815Z,96022.94
2023-02-21T23:18:55.946Z,96033.19
2023-02-21T23:21:23.857Z,96022.19
2023-02-21T23:23:51.752Z,96024.81
2023-02-21T23:26:20.182Z,96015.06
2023-02-21T23:28:48.809Z,96013.34
2023-02-21T23:31:17.757Z,96018.72
2023-02-21T23:33:45.935Z,96020.59
2023-02-21T23:36:15.430Z,96028.34
2023-02-21T23:38:42.964Z,96032.69
2023-02-21T23:41:10.667Z,96034.38
2023-02-21T23:43:38.458Z,96036.41
2023-02-21T23:46:07.675Z,96038.75
2023-02-21T23:48:35.277Z,96019.22
2023-02-21T23:51:02.837Z,96024.59
2023-02-21T23:53:31.817Z,96023.03
2023-02-21T23:55:59.452Z,96029.97
2023-02-21T23:58:28.964Z,96041.94
